| time (UTC) | temp F | wind direction | speed knots | gust knots | rain 1hr in | rain 24hr in | rain mn in | humidity % | barometer mb |
| 20260506200837 | 79 | 113 | 1.7 | 3.5 | 0.00 | 0.00 | 0.00 | 25 | 1017.2 |
| 20260506195817 | 78 | 180 | 2.6 | 4.3 | 0.00 | 0.00 | 0.00 | 25 | 1017.1 |
| 20260506194817 | 78 | 68 | 0.9 | 1.7 | 0.00 | 0.00 | 0.00 | 26 | 1017.2 |
| 20260506193816 | 77 | 113 | 2.6 | 5.2 | 0.00 | 0.00 | 0.00 | 26 | 1017.3 |
| 20260506192817 | 77 | 0.0 | 0.9 | 0.00 | 0.00 | 0.00 | 27 | 1017.5 | |
| 20260506191817 | 78 | 338 | 1.7 | 5.2 | 0.00 | 0.00 | 0.00 | 27 | 1017.6 |
| 20260506190817 | 77 | 113 | 0.9 | 1.7 | 0.00 | 0.00 | 0.00 | 28 | 1017.7 |
| 20260506185817 | 76 | 0.0 | 0.0 | 0.00 | 0.00 | 0.00 | 30 | 1017.8 | |
| 20260506184817 | 75 | 338 | 0.9 | 2.6 | 0.00 | 0.00 | 0.00 | 32 | 1017.9 |
| 20260506183817 | 74 | 90 | 1.7 | 4.3 | 0.00 | 0.00 | 0.00 | 32 | 1017.8 |
| 20260506182817 | 74 | 45 | 0.9 | 2.6 | 0.00 | 0.00 | 0.00 | 33 | 1018.2 |
| 20260506181837 | 73 | 0.0 | 0.0 | 0.00 | 0.00 | 0.00 | 33 | 1018.0 | |
| 20260506180817 | 74 | 0.0 | 0.9 | 0.00 | 0.00 | 0.00 | 34 | 1018.3 | |
| 20260506175816 | 72 | 158 | 0.9 | 1.7 | 0.00 | 0.00 | 0.00 | 36 | 1018.2 |
| 20260506174816 | 71 | 158 | 0.9 | 1.7 | 0.00 | 0.00 | 0.00 | 37 | 1018.0 |
| 20260506173817 | 71 | 68 | 1.7 | 2.6 | 0.00 | 0.00 | 0.00 | 37 | 1018.0 |
| 20260506172817 | 69 | 158 | 3.5 | 4.3 | 0.00 | 0.00 | 0.00 | 38 | 1017.9 |
| 20260506171816 | 69 | 338 | 3.5 | 5.2 | 0.00 | 0.00 | 0.00 | 38 | 1018.2 |
| 20260506170817 | 68 | 0 | 3.5 | 6.1 | 0.00 | 0.00 | 0.00 | 40 | 1018.0 |
| 20260506165817 | 68 | 45 | 1.7 | 3.5 | 0.00 | 0.00 | 0.00 | 40 | 1018.1 |
| 20260506164816 | 67 | 315 | 1.7 | 4.3 | 0.00 | 0.00 | 0.00 | 41 | 1018.1 |
| 20260506163836 | 66 | 315 | 3.5 | 5.2 | 0.00 | 0.00 | 0.00 | 42 | 1017.9 |
| 20260506162816 | 65 | 293 | 0.9 | 1.7 | 0.00 | 0.00 | 0.00 | 45 | 1017.9 |
| 20260506161817 | 65 | 0.0 | 2.6 | 0.00 | 0.00 | 0.00 | 44 | 1017.9 | |
| 20260506160836 | 65 | 315 | 1.7 | 3.5 | 0.00 | 0.00 | 0.00 | 45 | 1017.8 |
| 20260506155816 | 64 | 293 | 0.9 | 2.6 | 0.00 | 0.00 | 0.00 | 47 | 1017.7 |
| 20260506154816 | 64 | 315 | 1.7 | 5.2 | 0.00 | 0.00 | 0.00 | 46 | 1017.7 |
| 20260506153816 | 63 | 315 | 0.9 | 1.7 | 0.00 | 0.00 | 0.00 | 48 | 1017.9 |
| 20260506152816 | 62 | 270 | 0.9 | 2.6 | 0.00 | 0.00 | 0.00 | 51 | 1017.7 |
| 20260506151816 | 61 | 315 | 0.9 | 2.6 | 0.00 | 0.00 | 0.00 | 52 | 1017.7 |
| 20260506150836 | 60 | 293 | 0.9 | 4.3 | 0.00 | 0.00 | 0.00 | 53 | 1017.7 |
| 20260506145816 | 59 | 248 | 2.6 | 5.2 | 0.00 | 0.00 | 0.00 | 56 | 1017.5 |
| 20260506144816 | 59 | 270 | 2.6 | 7.0 | 0.00 | 0.00 | 0.00 | 57 | 1017.7 |
| 20260506143816 | 57 | 248 | 1.7 | 6.1 | 0.00 | 0.00 | 0.00 | 60 | 1017.5 |
| 20260506142816 | 56 | 270 | 0.9 | 2.6 | 0.00 | 0.00 | 0.00 | 63 | 1017.4 |
| 20260506141816 | 55 | 0.0 | 0.9 | 0.00 | 0.00 | 0.00 | 65 | 1017.5 | |
| 20260506140816 | 54 | 0.0 | 1.7 | 0.00 | 0.00 | 0.00 | 67 | 1017.5 | |
| 20260506135816 | 53 | 270 | 4.3 | 6.1 | 0.00 | 0.00 | 0.00 | 69 | 1017.2 |
| 20260506134816 | 52 | 315 | 1.7 | 3.5 | 0.00 | 0.00 | 0.00 | 71 | 1017.2 |
| 20260506133816 | 51 | 0.0 | 0.9 | 0.00 | 0.00 | 0.00 | 72 | 1017.1 | |
| 20260506132818 | 51 | 338 | 0.9 | 3.5 | 0.00 | 0.00 | 0.00 | 74 | 1016.8 |
| 20260506131816 | 50 | 0.0 | 0.9 | 0.00 | 0.00 | 0.00 | 76 | 1016.8 | |
| 20260506130816 | 50 | 293 | 0.9 | 2.6 | 0.00 | 0.00 | 0.00 | 77 | 1016.7 |
| 20260506125836 | 49 | 270 | 0.9 | 2.6 | 0.00 | 0.00 | 0.00 | 80 | 1016.4 |
| 20260506124816 | 47 | 338 | 0.9 | 1.7 | 0.00 | 0.00 | 0.00 | 79 | 1016.5 |
| 20260506123816 | 47 | 0.0 | 0.0 | 0.00 | 0.00 | 0.00 | 78 | 1016.6 | |
| 20260506122816 | 47 | 0.0 | 1.7 | 0.00 | 0.00 | 0.00 | 80 | 1016.6 | |
| 20260506121816 | 44 | 0.0 | 0.0 | 0.00 | 0.00 | 0.00 | 84 | 1016.4 | |
| 20260506120816 | 43 | 0.0 | 0.0 | 0.00 | 0.00 | 0.00 | 84 | 1016.1 | |
| 20260506115816 | 41 | 0.0 | 0.0 | 0.00 | 0.00 | 0.00 | 81 | 1015.8 | |
| 20260506114816 | 41 | 0.0 | 0.0 | 0.00 | 0.00 | 0.00 | 80 | 1016.0 | |
| 20260506113816 | 42 | 0.0 | 0.0 | 0.00 | 0.00 | 0.00 | 79 | 1015.9 | |
| 20260506112836 | 43 | 338 | 1.7 | 2.6 | 0.00 | 0.00 | 0.00 | 75 | 1016.1 |
| 20260506111816 | 47 | 315 | 5.2 | 6.1 | 0.00 | 0.00 | 0.00 | 71 | 1016.3 |
| 20260506110816 | 50 | 270 | 1.7 | 3.5 | 0.00 | 0.00 | 0.00 | 74 | 1016.4 |
| 20260506105817 | 50 | 225 | 2.6 | 6.1 | 0.00 | 0.00 | 0.00 | 74 | 1016.3 |
| 20260506104816 | 49 | 270 | 0.9 | 2.6 | 0.00 | 0.00 | 0.00 | 76 | 1016.4 |
| 20260506103816 | 49 | 248 | 0.9 | 2.6 | 0.00 | 0.00 | 0.00 | 77 | 1016.4 |
| 20260506102816 | 49 | 248 | 2.6 | 3.5 | 0.00 | 0.00 | 0.00 | 77 | 1016.4 |
| 20260506101836 | 49 | 248 | 1.7 | 3.5 | 0.00 | 0.00 | 0.00 | 76 | 1016.4 |
| 20260506100816 | 50 | 225 | 2.6 | 3.5 | 0.00 | 0.00 | 0.00 | 76 | 1016.4 |
| 20260506095816 | 50 | 225 | 3.5 | 5.2 | 0.00 | 0.00 | 0.00 | 76 | 1016.4 |
| 20260506094856 | 50 | 225 | 5.2 | 9.6 | 0.00 | 0.00 | 0.00 | 76 | 1016.5 |
| 20260506093816 | 50 | 225 | 5.2 | 7.0 | 0.00 | 0.00 | 0.00 | 76 | 1016.5 |
| 20260506092816 | 50 | 225 | 4.3 | 8.7 | 0.00 | 0.00 | 0.00 | 76 | 1016.6 |
| 20260506091836 | 49 | 225 | 4.3 | 6.1 | 0.00 | 0.00 | 0.00 | 76 | 1016.3 |
| 20260506090816 | 50 | 225 | 3.5 | 4.3 | 0.00 | 0.00 | 0.00 | 75 | 1016.4 |
| 20260506085816 | 50 | 225 | 4.3 | 7.8 | 0.00 | 0.00 | 0.00 | 75 | 1016.4 |
| 20260506084816 | 50 | 248 | 4.3 | 10.4 | 0.00 | 0.00 | 0.00 | 75 | 1016.2 |
| 20260506083816 | 50 | 225 | 3.5 | 5.2 | 0.00 | 0.00 | 0.00 | 73 | 1016.2 |
| 20260506082815 | 50 | 225 | 4.3 | 7.8 | 0.00 | 0.00 | 0.00 | 73 | 1016.1 |
| 20260506081816 | 50 | 225 | 5.2 | 7.0 | 0.00 | 0.00 | 0.00 | 74 | 1016.1 |
| 20260506080816 | 49 | 225 | 3.5 | 4.3 | 0.00 | 0.00 | 0.00 | 74 | 1016.2 |
| 20260506072816 | 49 | 248 | 3.5 | 6.1 | 0.00 | 0.00 | 0.00 | 73 | 1016.1 |
| 20260506071816 | 50 | 225 | 3.5 | 6.1 | 0.00 | 0.00 | 0.00 | 72 | 1016.0 |
| 20260506070815 | 50 | 225 | 2.6 | 3.5 | 0.00 | 0.00 | 0.00 | 71 | 1016.0 |
| 20260506061815 | 52 | 225 | 4.3 | 6.1 | 0.00 | 0.00 | 0.00 | 66 | 1015.5 |
| 20260506060818 | 52 | 248 | 4.3 | 6.1 | 0.00 | 0.00 | 0.00 | 67 | 1015.5 |
| 20260506050817 | 52 | 248 | 3.5 | 7.0 | 0.00 | 0.00 | 0.00 | 68 | 1014.9 |
| 20260506044819 | 53 | 225 | 3.5 | 7.0 | 0.00 | 0.00 | 0.00 | 67 | 1014.9 |
| 20260506043837 | 53 | 248 | 3.5 | 6.1 | 0.00 | 0.00 | 0.00 | 67 | 1014.7 |
| 20260506042837 | 53 | 248 | 3.5 | 7.0 | 0.00 | 0.00 | 0.00 | 66 | 1014.6 |
| 20260506041817 | 53 | 225 | 3.5 | 6.1 | 0.00 | 0.00 | 0.00 | 67 | 1014.4 |
| 20260506040837 | 53 | 248 | 7.0 | 11.3 | 0.00 | 0.00 | 0.00 | 67 | 1014.4 |
| 20260506035818 | 53 | 225 | 2.6 | 4.3 | 0.00 | 0.00 | 0.00 | 67 | 1014.3 |
| 20260506034817 | 53 | 248 | 3.5 | 7.8 | 0.00 | 0.00 | 0.00 | 66 | 1013.9 |
| 20260506033817 | 53 | 270 | 4.3 | 7.0 | 0.00 | 0.00 | 0.00 | 66 | 1013.8 |
| 20260506032837 | 53 | 248 | 5.2 | 10.4 | 0.00 | 0.00 | 0.00 | 65 | 1013.6 |
| 20260506031817 | 54 | 248 | 4.3 | 9.6 | 0.00 | 0.00 | 0.00 | 65 | 1013.6 |
| 20260506030817 | 54 | 225 | 3.5 | 7.8 | 0.00 | 0.00 | 0.00 | 65 | 1013.5 |
| 20260506025837 | 54 | 248 | 4.3 | 6.1 | 0.00 | 0.00 | 0.00 | 64 | 1013.5 |
| 20260506024817 | 55 | 248 | 4.3 | 7.0 | 0.00 | 0.00 | 0.00 | 63 | 1013.1 |
| 20260506023817 | 55 | 270 | 3.5 | 7.0 | 0.00 | 0.00 | 0.00 | 63 | 1013.2 |
| 20260506022817 | 55 | 270 | 5.2 | 8.7 | 0.00 | 0.00 | 0.00 | 62 | 1013.1 |
| 20260506021817 | 56 | 248 | 5.2 | 10.4 | 0.00 | 0.00 | 0.00 | 60 | 1012.8 |
| 20260506020837 | 57 | 248 | 2.6 | 6.1 | 0.00 | 0.00 | 0.00 | 59 | 1012.9 |
| 20260506015817 | 58 | 270 | 7.0 | 9.6 | 0.00 | 0.00 | 0.00 | 57 | 1012.7 |
| 20260506014817 | 58 | 248 | 2.6 | 6.1 | 0.00 | 0.00 | 0.00 | 56 | 1012.5 |
| 20260506013817 | 58 | 225 | 0.9 | 2.6 | 0.00 | 0.00 | 0.00 | 56 | 1012.5 |
| 20260506012817 | 59 | 270 | 7.0 | 12.2 | 0.00 | 0.00 | 0.00 | 54 | 1012.5 |
| 20260506011817 | 60 | 270 | 5.2 | 11.3 | 0.00 | 0.00 | 0.00 | 52 | 1012.6 |
| 20260506010817 | 61 | 315 | 3.5 | 10.4 | 0.00 | 0.00 | 0.00 | 50 | 1012.5 |
| 20260506005817 | 62 | 248 | 3.5 | 5.2 | 0.00 | 0.00 | 0.00 | 49 | 1012.6 |
| 20260506004817 | 62 | 315 | 5.2 | 10.4 | 0.00 | 0.00 | 0.00 | 48 | 1012.6 |
| 20260506003817 | 62 | 315 | 2.6 | 7.0 | 0.00 | 0.00 | 0.00 | 48 | 1012.5 |
| 20260506002817 | 63 | 293 | 4.3 | 7.8 | 0.00 | 0.00 | 0.00 | 47 | 1012.5 |
| 20260506001817 | 63 | 270 | 1.7 | 3.5 | 0.00 | 0.00 | 0.00 | 47 | 1012.5 |
| 20260506000817 | 63 | 293 | 3.5 | 8.7 | 0.00 | 0.00 | 0.00 | 45 | 1012.3 |
| 20260505235837 | 64 | 248 | 2.6 | 5.2 | 0.00 | 0.00 | 0.00 | 44 | 1012.1 |
| 20260505234817 | 65 | 270 | 4.3 | 7.8 | 0.00 | 0.00 | 0.00 | 42 | 1012.2 |
| 20260505233837 | 65 | 225 | 1.7 | 4.3 | 0.00 | 0.00 | 0.00 | 41 | 1012.2 |
| 20260505232817 | 65 | 293 | 5.2 | 8.7 | 0.00 | 0.00 | 0.00 | 41 | 1012.1 |
| 20260505231817 | 65 | 315 | 3.5 | 5.2 | 0.00 | 0.00 | 0.00 | 41 | 1012.1 |
| 20260505230817 | 65 | 270 | 2.6 | 3.5 | 0.00 | 0.00 | 0.00 | 42 | 1012.2 |
| 20260505225857 | 65 | 248 | 4.3 | 7.8 | 0.00 | 0.00 | 0.00 | 42 | 1012.2 |
| 20260505224857 | 65 | 270 | 5.2 | 11.3 | 0.00 | 0.00 | 0.00 | 42 | 1012.4 |
| 20260505223837 | 67 | 270 | 4.3 | 8.7 | 0.00 | 0.00 | 0.00 | 42 | 1012.5 |
| 20260505222817 | 65 | 293 | 2.6 | 5.2 | 0.00 | 0.00 | 0.00 | 44 | 1012.5 |
| 20260505221817 | 66 | 293 | 2.6 | 5.2 | 0.00 | 0.00 | 0.00 | 39 | 1012.4 |
| 20260505220817 | 65 | 248 | 2.6 | 5.2 | 0.00 | 0.00 | 0.00 | 43 | 1012.4 |
| 20260505215817 | 66 | 225 | 5.2 | 11.3 | 0.00 | 0.00 | 0.00 | 41 | 1012.4 |
| 20260505214816 | 66 | 315 | 1.7 | 3.5 | 0.00 | 0.00 | 0.00 | 41 | 1012.5 |
| 20260505213818 | 66 | 248 | 7.8 | 15.6 | 0.00 | 0.00 | 0.00 | 44 | 1012.6 |
| 20260505212817 | 66 | 225 | 6.1 | 9.6 | 0.00 | 0.00 | 0.00 | 43 | 1012.5 |
| 20260505211817 | 65 | 248 | 7.8 | 11.3 | 0.00 | 0.00 | 0.00 | 45 | 1012.6 |
| 20260505210816 | 64 | 248 | 4.3 | 7.8 | 0.00 | 0.00 | 0.00 | 46 | 1012.5 |
| 20260505205816 | 64 | 248 | 1.7 | 3.5 | 0.00 | 0.00 | 0.00 | 44 | 1012.5 |
| 20260505204836 | 64 | 225 | 7.8 | 15.6 | 0.00 | 0.00 | 0.00 | 47 | 1012.4 |
| 20260505203816 | 62 | 225 | 5.2 | 7.8 | 0.00 | 0.00 | 0.00 | 50 | 1012.5 |
| 20260505202817 | 61 | 248 | 4.3 | 7.8 | 0.00 | 0.00 | 0.00 | 51 | 1012.6 |
| 20260505201837 | 61 | 248 | 6.1 | 11.3 | 0.00 | 0.00 | 0.00 | 50 | 1012.6 |